Time;durP1;ratioP1;P1;durP2;ratioP2;P2;SDS_P1;SDS_P2;PMS_P1;PMS_P2;Temp;Humidity;BMP_temperature;BMP_pressure;BME280_temperature;BME280_humidity;BME280_pressure;Samples;Min_cycle;Max_cycle;Signal;HPM_P1;HPM_P2
2022/12/06 00:00:23;;;;;;;;;;;;;;;4.92;79.66;101476.56;5085562;28;20322;-55
2022/12/06 00:02:48;;;;;;;;;;;;;;;4.96;79.51;101476.50;5081834;28;19928;-56
2022/12/06 00:05:13;;;;;;;;;;;;;;;5.01;79.18;101471.16;5074734;28;19962;-61
2022/12/06 00:07:39;;;;;;;;;;;;;;;5.00;79.27;101477.25;5082400;28;20011;-55
2022/12/06 00:10:04;;;;;;;;;;;;;;;4.99;79.25;101462.50;5071691;28;19927;-58
2022/12/06 00:12:30;;;;;;;;;;;;;;;4.97;79.48;101466.91;5084392;28;19920;-56
2022/12/06 00:14:55;;;;;;;;;;;;;;;4.98;79.34;101463.41;5084782;28;19916;-55
2022/12/06 00:17:20;;;;;;;;;;;;;;;4.95;79.43;101468.69;5083699;28;19927;-59
2022/12/06 00:19:46;;;;;;;;;;;;;;;4.96;79.33;101465.19;5084976;28;20359;-56
2022/12/06 00:22:11;;;;;;;;;;;;;;;4.94;79.49;101456.53;5084409;28;19924;-56
2022/12/06 00:24:36;;;;;;;;;;;;;;;4.93;79.58;101462.63;5083156;28;19920;-56
2022/12/06 00:27:02;;;;;;;;;;;;;;;4.93;79.49;101452.19;5082100;28;19923;-55
2022/12/06 00:29:27;;;;;;;;;;;;;;;4.94;79.67;101456.53;5091366;28;19916;-56
2022/12/06 00:31:52;;;;;;;;;;;;;;;4.96;79.27;101453.00;5070661;28;19927;-55
2022/12/06 00:34:18;;;;;;;;;;;;;;;4.97;79.31;101453.84;5087338;28;19923;-55
2022/12/06 00:36:43;;;;;;;;;;;;;;;4.95;79.55;101450.41;5087681;28;19920;-58
2022/12/06 00:39:10;;;;;;;;;;;;;;;4.98;79.54;101446.00;5088158;28;19924;-55
2022/12/06 00:41:36;;;;;;;;;;;;;;;4.97;79.60;101452.13;5087111;28;19919;-57
2022/12/06 00:44:01;;;;;;;;;;;;;;;4.98;79.10;101463.41;5087094;28;19920;-57
2022/12/06 00:46:28;;;;;;;;;;;;;;;4.98;79.16;101463.41;5089623;28;21196;-55
2022/12/06 00:48:54;;;;;;;;;;;;;;;4.99;79.17;101460.75;5086313;28;19990;-58
2022/12/06 00:51:20;;;;;;;;;;;;;;;4.99;79.28;101457.28;5087890;28;19948;-57
2022/12/06 00:53:46;;;;;;;;;;;;;;;4.99;79.02;101467.72;5082279;28;19916;-55
2022/12/06 00:56:12;;;;;;;;;;;;;;;4.99;78.88;101465.13;5089681;28;19967;-58
2022/12/06 00:58:37;;;;;;;;;;;;;;;5.00;78.96;101459.00;5088731;28;19959;-59
2022/12/06 01:01:09;;;;;;;;;;;;;;;4.99;79.08;101459.91;5085229;28;19920;-60
2022/12/06 01:03:38;;;;;;;;;;;;;;;5.00;79.30;101459.00;5086913;28;19916;-54
2022/12/06 01:06:07;;;;;;;;;;;;;;;4.98;78.90;101459.06;5082502;28;19912;-56
2022/12/06 01:08:34;;;;;;;;;;;;;;;5.00;79.16;101454.63;5087030;28;20067;-56
2022/12/06 01:11:00;;;;;;;;;;;;;;;5.03;79.08;101451.97;5087736;28;19929;-62
2022/12/06 01:13:25;;;;;;;;;;;;;;;5.04;79.27;101455.44;5083085;28;19924;-55
2022/12/06 01:15:52;;;;;;;;;;;;;;;5.02;79.10;101455.47;5086843;28;19917;-55
2022/12/06 01:18:17;;;;;;;;;;;;;;;5.03;79.15;101458.94;5088144;28;19935;-56
2022/12/06 01:20:42;;;;;;;;;;;;;;;5.04;79.06;101450.22;5087037;28;19916;-57
2022/12/06 01:23:08;;;;;;;;;;;;;;;4.99;78.79;101444.25;5087205;28;20284;-54
2022/12/06 01:25:33;;;;;;;;;;;;;;;4.97;79.31;101443.41;5083726;28;19964;-55
2022/12/06 01:27:59;;;;;;;;;;;;;;;4.91;79.59;101452.25;5087011;28;19922;-58
2022/12/06 01:30:24;;;;;;;;;;;;;;;4.83;80.02;101442.00;5090863;28;19919;-54
2022/12/06 01:32:49;;;;;;;;;;;;;;;4.89;79.96;101438.38;5086142;28;20002;-59
2022/12/06 01:35:15;;;;;;;;;;;;;;;4.91;79.89;101433.16;5085962;28;19916;-60
2022/12/06 01:37:40;;;;;;;;;;;;;;;4.96;79.63;101429.53;5087568;28;20023;-56
2022/12/06 01:40:07;;;;;;;;;;;;;;;4.98;79.30;101435.56;5085833;28;20387;-56
2022/12/06 01:42:32;;;;;;;;;;;;;;;4.88;79.68;101432.31;5082305;28;19924;-59
2022/12/06 01:44:58;;;;;;;;;;;;;;;4.82;80.05;101422.00;5085506;28;19928;-54
2022/12/06 01:47:28;;;;;;;;;;;;;;;4.81;80.10;101427.28;5086929;28;19943;-56
2022/12/06 01:50:05;;;;;;;;;;;;;;;4.86;79.75;101423.66;5086276;28;19927;-60
2022/12/06 01:52:34;;;;;;;;;;;;;;;4.94;79.64;101423.50;5084589;28;20406;-55
2022/12/06 01:55:01;;;;;;;;;;;;;;;4.95;79.15;101426.94;5083666;28;20011;-57
2022/12/06 01:57:26;;;;;;;;;;;;;;;5.00;79.08;101419.88;5083874;28;19974;-55
2022/12/06 01:59:52;;;;;;;;;;;;;;;5.02;79.35;101428.53;5085786;28;19943;-55
2022/12/06 02:02:17;;;;;;;;;;;;;;;5.04;79.06;101424.13;5083195;28;20002;-56
2022/12/06 02:04:43;;;;;;;;;;;;;;;5.05;78.78;101423.25;5084600;28;20260;-56
2022/12/06 02:07:10;;;;;;;;;;;;;;;4.99;78.89;101424.22;5084590;28;19912;-57
2022/12/06 02:09:35;;;;;;;;;;;;;;;5.01;79.07;101416.38;5085524;28;19928;-58
2022/12/06 02:12:01;;;;;;;;;;;;;;;5.01;79.15;101416.38;5081711;28;19970;-56
2022/12/06 02:14:31;;;;;;;;;;;;;;;4.97;79.20;101410.38;5074648;28;19927;-57
2022/12/06 02:17:02;;;;;;;;;;;;;;;5.02;78.68;101415.50;5079426;28;19962;-58
2022/12/06 02:19:27;;;;;;;;;;;;;;;5.08;78.80;101410.09;5065383;28;19916;-55
2022/12/06 02:22:00;;;;;;;;;;;;;;;5.09;78.73;101409.22;5081717;28;19923;-55
2022/12/06 02:24:44;;;;;;;;;;;;;;;5.07;78.74;101405.78;5081218;28;19970;-54
2022/12/06 02:27:28;;;;;;;;;;;;;;;5.06;78.77;101406.72;5075330;28;19931;-55
2022/12/06 02:30:10;;;;;;;;;;;;;;;5.09;78.93;101400.53;5081976;28;19939;-55
2022/12/06 02:33:05;;;;;;;;;;;;;;;5.06;78.88;101409.31;5085311;28;19916;-58
2022/12/06 02:35:35;;;;;;;;;;;;;;;5.07;78.62;101399.72;5067299;28;19917;-58
2022/12/06 02:38:06;;;;;;;;;;;;;;;5.06;78.88;101391.06;5085591;28;19923;-57
2022/12/06 02:40:35;;;;;;;;;;;;;;;5.06;78.68;101391.06;5086078;28;20002;-55
2022/12/06 02:43:04;;;;;;;;;;;;;;;5.01;78.58;101395.50;5085561;28;19916;-54
2022/12/06 02:45:32;;;;;;;;;;;;;;;5.06;78.43;101388.44;5084142;28;19928;-55
2022/12/06 02:48:00;;;;;;;;;;;;;;;5.07;78.34;101391.91;5086822;28;19920;-55
2022/12/06 02:50:31;;;;;;;;;;;;;;;5.08;78.77;101381.41;5085313;28;20411;-55
2022/12/06 02:52:58;;;;;;;;;;;;;;;5.11;78.14;101385.72;5083813;28;19935;-54
2022/12/06 02:55:25;;;;;;;;;;;;;;;5.11;78.25;101385.72;5082993;28;20319;-57
2022/12/06 02:57:52;;;;;;;;;;;;;;;5.11;78.39;101376.13;5086527;28;19982;-55
2022/12/06 03:00:29;;;;;;;;;;;;;;;5.11;78.43;101381.34;5083686;28;19998;-57
2022/12/06 03:03:03;;;;;;;;;;;;;;;5.14;78.18;101376.06;5080875;28;19927;-54
2022/12/06 03:05:36;;;;;;;;;;;;;;;5.15;78.19;101367.34;5083498;28;19920;-57
2022/12/06 03:08:03;;;;;;;;;;;;;;;5.10;78.19;101374.41;5084158;28;21069;-57
2022/12/06 03:10:51;;;;;;;;;;;;;;;5.08;77.85;101370.97;5080934;28;19916;-54
2022/12/06 03:13:21;;;;;;;;;;;;;;;5.09;78.14;101371.84;5084956;28;19970;-55
2022/12/06 03:15:50;;;;;;;;;;;;;;;5.08;77.91;101376.19;5078578;28;19916;-57
2022/12/06 03:18:21;;;;;;;;;;;;;;;5.09;78.04;101372.69;5084620;28;19946;-60
2022/12/06 03:20:55;;;;;;;;;;;;;;;5.10;78.36;101368.34;5085856;28;19912;-57
2022/12/06 03:23:24;;;;;;;;;;;;;;;5.09;78.11;101367.47;5088465;28;19923;-55
2022/12/06 03:25:51;;;;;;;;;;;;;;;5.07;77.96;101361.44;5085860;28;19920;-58
2022/12/06 03:28:19;;;;;;;;;;;;;;;5.09;78.32;101374.47;5084832;28;21232;-57
2022/12/06 03:30:46;;;;;;;;;;;;;;;5.11;78.39;101365.69;5088198;28;20276;-57
2022/12/06 03:33:12;;;;;;;;;;;;;;;5.06;78.14;101364.97;5086311;28;20549;-58
2022/12/06 03:35:38;;;;;;;;;;;;;;;5.00;77.92;101357.28;5086518;28;19949;-58
2022/12/06 03:38:09;;;;;;;;;;;;;;;5.00;77.95;101357.28;5087451;28;19989;-56
2022/12/06 03:40:35;;;;;;;;;;;;;;;5.01;78.42;101361.59;5080449;28;19963;-56
2022/12/06 03:43:01;;;;;;;;;;;;;;;5.01;78.03;101359.00;5087480;28;19927;-55
2022/12/06 03:45:32;;;;;;;;;;;;;;;5.01;78.23;101356.38;5081276;28;20298;-58
2022/12/06 03:47:57;;;;;;;;;;;;;;;5.03;77.82;101357.22;5085986;28;19952;-56
2022/12/06 03:50:38;;;;;;;;;;;;;;;4.99;78.27;101345.13;5089585;28;19993;-55
2022/12/06 03:53:03;;;;;;;;;;;;;;;4.96;78.00;101350.41;5087415;28;19916;-56
2022/12/06 03:55:29;;;;;;;;;;;;;;;4.85;78.26;101346.31;5085611;28;19951;-55
2022/12/06 03:57:54;;;;;;;;;;;;;;;4.80;78.41;101345.56;5085222;28;20013;-56
2022/12/06 04:00:19;;;;;;;;;;;;;;;4.69;78.90;101348.44;5087969;28;20006;-57
2022/12/06 04:02:45;;;;;;;;;;;;;;;4.64;78.71;101341.59;5089156;28;19920;-58
2022/12/06 04:05:10;;;;;;;;;;;;;;;4.76;78.86;101333.53;5081919;28;19920;-57
2022/12/06 04:07:36;;;;;;;;;;;;;;;4.83;78.73;101337.69;5084102;28;19920;-58
2022/12/06 04:10:02;;;;;;;;;;;;;;;4.88;78.26;101338.44;5084158;28;19924;-55
2022/12/06 04:15:15;;;;;;;;;;;;;;;4.95;77.98;101333.94;5082359;28;20341;-56
2022/12/06 04:20:25;;;;;;;;;;;;;;;4.91;78.06;101326.22;5082118;28;19987;-57
2022/12/06 04:23:03;;;;;;;;;;;;;;;4.90;78.26;101324.50;5083209;28;19912;-57
2022/12/06 04:25:32;;;;;;;;;;;;;;;4.79;78.51;101317.78;5078512;28;19974;-58
2022/12/06 04:39:07;;;;;;;;;;;;;;;4.96;78.07;101306.94;5011141;28;19934;-56
2022/12/06 04:44:16;;;;;;;;;;;;;;;5.01;77.85;101304.22;5084976;28;20306;-54
2022/12/06 04:46:41;;;;;;;;;;;;;;;4.91;78.36;101305.34;5076327;28;19929;-58
2022/12/06 04:49:06;;;;;;;;;;;;;;;4.73;78.66;101303.16;5079324;28;19924;-59
2022/12/06 04:51:32;;;;;;;;;;;;;;;4.68;79.08;101298.94;5076732;28;19928;-57
2022/12/06 04:53:57;;;;;;;;;;;;;;;4.70;78.82;101291.94;5064133;28;20433;-57
2022/12/06 04:56:23;;;;;;;;;;;;;;;4.62;79.09;101289.53;5082242;28;19916;-58
2022/12/06 04:58:48;;;;;;;;;;;;;;;4.58;78.98;101291.34;5088974;28;19967;-55
2022/12/06 05:01:13;;;;;;;;;;;;;;;4.39;79.79;101297.88;5082762;28;19921;-56
2022/12/06 05:03:39;;;;;;;;;;;;;;;4.34;80.19;101299.72;5083510;28;20011;-55
2022/12/06 05:06:04;;;;;;;;;;;;;;;4.42;79.86;101297.81;5085731;28;20379;-55
2022/12/06 05:08:30;;;;;;;;;;;;;;;4.55;79.53;101290.53;5087651;28;19919;-56
2022/12/06 05:10:55;;;;;;;;;;;;;;;4.66;79.53;101288.56;5081383;28;20398;-54
2022/12/06 05:13:21;;;;;;;;;;;;;;;4.70;79.19;101291.94;5075133;28;20672;-54
2022/12/06 05:16:05;;;;;;;;;;;;;;;4.78;78.77;101290.00;5082185;28;19935;-55
2022/12/06 05:18:31;;;;;;;;;;;;;;;4.86;78.28;101292.41;5083743;28;19963;-55
2022/12/06 05:21:04;;;;;;;;;;;;;;;4.84;77.82;101287.25;5071906;28;20382;-54
2022/12/06 05:23:30;;;;;;;;;;;;;;;4.80;78.13;101283.00;5081233;28;19928;-62
2022/12/06 05:25:59;;;;;;;;;;;;;;;4.82;78.17;101281.22;5084348;28;19928;-54
2022/12/06 05:28:24;;;;;;;;;;;;;;;4.83;77.63;101282.06;5082457;28;19920;-57
2022/12/06 05:30:49;;;;;;;;;;;;;;;4.72;78.26;101277.13;5080485;28;19928;-57
2022/12/06 05:33:15;;;;;;;;;;;;;;;4.68;78.10;101272.88;5077591;28;19931;-58
2022/12/06 05:35:40;;;;;;;;;;;;;;;4.59;78.43;101279.16;5082019;28;19920;-62
2022/12/06 05:38:05;;;;;;;;;;;;;;;4.68;78.51;101285.91;5067409;28;19932;-55
2022/12/06 05:40:30;;;;;;;;;;;;;;;4.63;78.54;101279.94;5082337;28;20015;-57
2022/12/06 05:42:56;;;;;;;;;;;;;;;4.60;78.31;101283.47;5081669;28;20485;-57
2022/12/06 05:45:22;;;;;;;;;;;;;;;4.66;78.60;101285.97;5086908;28;19929;-58
2022/12/06 05:47:47;;;;;;;;;;;;;;;4.66;78.30;101280.75;5085912;28;20390;-56
2022/12/06 05:50:13;;;;;;;;;;;;;;;4.73;78.16;101281.44;5079325;28;20011;-57
2022/12/06 05:52:38;;;;;;;;;;;;;;;4.75;77.94;101277.06;5086022;28;19920;-56
2022/12/06 05:55:03;;;;;;;;;;;;;;;4.77;77.66;101283.06;5081189;28;20329;-56
2022/12/06 05:57:29;;;;;;;;;;;;;;;4.62;77.68;101278.22;5080826;28;19932;-56
2022/12/06 05:59:54;;;;;;;;;;;;;;;4.70;77.98;101276.31;5085002;28;19928;-58
2022/12/06 06:02:19;;;;;;;;;;;;;;;4.79;77.78;101285.66;5083325;28;19924;-59
2022/12/06 06:04:45;;;;;;;;;;;;;;;4.81;77.38;101279.50;5086402;28;19925;-57
2022/12/06 06:07:10;;;;;;;;;;;;;;;4.85;76.97;101278.53;5084906;28;20023;-59
2022/12/06 06:09:35;;;;;;;;;;;;;;;4.82;77.13;101269.94;5089910;28;19924;-59
2022/12/06 06:12:00;;;;;;;;;;;;;;;4.76;77.15;101273.56;5079352;28;20414;-57
2022/12/06 06:14:26;;;;;;;;;;;;;;;4.77;76.89;101270.03;5084084;28;19955;-57
2022/12/06 06:16:51;;;;;;;;;;;;;;;4.81;77.33;101263.84;5076736;28;19925;-56
2022/12/06 06:19:17;;;;;;;;;;;;;;;4.80;77.16;101269.97;5081412;28;19940;-58
2022/12/06 06:21:42;;;;;;;;;;;;;;;4.79;77.37;101267.41;5085799;28;19913;-58
2022/12/06 06:24:07;;;;;;;;;;;;;;;4.79;77.11;101273.47;5088436;28;19916;-55
2022/12/06 06:26:33;;;;;;;;;;;;;;;4.80;77.15;101267.34;5084043;28;19916;-57
2022/12/06 06:28:58;;;;;;;;;;;;;;;4.82;77.34;101273.38;5087598;28;19927;-56
2022/12/06 06:31:23;;;;;;;;;;;;;;;4.79;77.18;101276.06;5083446;28;19924;-57
2022/12/06 06:33:49;;;;;;;;;;;;;;;4.76;77.63;101276.16;5084503;28;19922;-60
2022/12/06 06:36:16;;;;;;;;;;;;;;;4.78;77.52;101284.78;5084898;28;20217;-56
2022/12/06 06:38:41;;;;;;;;;;;;;;;4.78;77.67;101278.72;5084670;28;19920;-59
2022/12/06 06:41:07;;;;;;;;;;;;;;;4.77;76.94;101283.06;5089814;28;19924;-57
2022/12/06 06:43:32;;;;;;;;;;;;;;;4.77;77.45;101277.84;5090054;28;19958;-56
2022/12/06 06:46:02;;;;;;;;;;;;;;;4.79;77.13;101290.88;5080570;28;19924;-59
2022/12/06 06:48:30;;;;;;;;;;;;;;;4.81;77.42;101287.31;5085766;28;19920;-59
2022/12/06 06:50:55;;;;;;;;;;;;;;;4.85;77.08;101282.88;5085524;28;20414;-58
2022/12/06 06:53:21;;;;;;;;;;;;;;;4.82;77.40;101281.22;5087320;28;19963;-59
2022/12/06 06:55:46;;;;;;;;;;;;;;;4.82;77.54;101291.63;5086689;28;19994;-57
2022/12/06 06:58:13;;;;;;;;;;;;;;;4.81;77.68;101289.09;5086677;28;19916;-57
2022/12/06 07:00:39;;;;;;;;;;;;;;;4.81;77.28;101289.09;5073532;28;19912;-56
2022/12/06 07:03:04;;;;;;;;;;;;;;;4.83;77.54;101292.50;5087668;28;19920;-57
2022/12/06 07:05:29;;;;;;;;;;;;;;;4.85;77.63;101291.56;5085796;28;19924;-58
2022/12/06 07:07:56;;;;;;;;;;;;;;;4.84;77.20;101291.63;5087832;28;19924;-56
2022/12/06 07:10:24;;;;;;;;;;;;;;;4.82;77.67;101289.03;5083335;28;20291;-57
2022/12/06 07:12:49;;;;;;;;;;;;;;;4.82;77.87;101281.22;5085996;28;19924;-58
2022/12/06 07:15:14;;;;;;;;;;;;;;;4.85;77.74;101288.09;5085693;28;19916;-58
2022/12/06 07:17:40;;;;;;;;;;;;;;;4.82;77.58;101290.78;5083191;28;19924;-58
2022/12/06 07:20:05;;;;;;;;;;;;;;;4.83;77.30;101289.91;5084742;28;20010;-60
2022/12/06 07:22:31;;;;;;;;;;;;;;;4.81;77.24;101292.53;5081417;28;19924;-57
2022/12/06 07:24:56;;;;;;;;;;;;;;;4.82;77.09;101291.63;5087207;28;19924;-57
2022/12/06 07:27:21;;;;;;;;;;;;;;;4.81;77.28;101287.31;5086281;28;20014;-57
2022/12/06 07:29:47;;;;;;;;;;;;;;;4.82;77.29;101291.63;5085556;28;20421;-57
2022/12/06 07:32:12;;;;;;;;;;;;;;;4.86;76.96;101295.88;5088577;28;19920;-57
2022/12/06 07:34:38;;;;;;;;;;;;;;;4.87;76.81;101292.38;5084930;28;19923;-55
2022/12/06 07:37:03;;;;;;;;;;;;;;;4.88;77.19;101301.06;5083788;28;20339;-57
2022/12/06 07:39:29;;;;;;;;;;;;;;;4.87;77.05;101299.34;5079200;28;19924;-57
2022/12/06 07:47:22;;;;;;;;;;;;;;;4.88;77.27;101301.06;5082498;28;19927;-57
2022/12/06 07:49:50;;;;;;;;;;;;;;;4.88;77.16;101301.06;5089541;28;19916;-57
2022/12/06 07:52:15;;;;;;;;;;;;;;;4.90;76.78;101303.66;5084181;28;19916;-57
2022/12/06 07:54:41;;;;;;;;;;;;;;;4.91;77.04;101300.16;5087582;28;20002;-57
2022/12/06 07:57:06;;;;;;;;;;;;;;;4.90;76.88;101301.03;5084684;28;19920;-60
2022/12/06 07:59:32;;;;;;;;;;;;;;;4.91;77.02;101300.97;5085561;28;19925;-56
2022/12/06 08:01:57;;;;;;;;;;;;;;;4.91;77.04;101302.75;5086430;28;19961;-56
2022/12/06 08:04:23;;;;;;;;;;;;;;;4.90;76.97;101298.44;5069651;28;20014;-55
2022/12/06 08:06:48;;;;;;;;;;;;;;;4.90;76.90;101298.44;5079411;28;19979;-57
2022/12/06 08:09:14;;;;;;;;;;;;;;;4.90;77.05;101301.03;5068923;22;20427;-52
2022/12/06 08:11:39;;;;;;;;;;;;;;;4.91;76.96;101289.72;5028921;28;19929;-52
2022/12/06 08:14:04;;;;;;;;;;;;;;;4.86;76.91;101290.69;5022613;28;19917;-51
2022/12/06 08:16:30;;;;;;;;;;;;;;;4.87;76.85;101291.50;5026104;28;20008;-52
2022/12/06 08:18:55;;;;;;;;;;;;;;;4.90;76.97;101288.00;5035643;28;19999;-53
2022/12/06 08:21:20;;;;;;;;;;;;;;;4.86;76.84;101288.06;5047987;28;20296;-52
2022/12/06 08:23:46;;;;;;;;;;;;;;;4.88;76.54;101286.28;5043151;28;21269;-52
2022/12/06 08:26:12;;;;;;;;;;;;;;;4.83;76.29;101285.53;5044404;28;19967;-52
2022/12/06 08:28:38;;;;;;;;;;;;;;;4.85;76.13;101291.56;5049352;28;19919;-52
2022/12/06 08:31:04;;;;;;;;;;;;;;;4.86;76.33;101288.06;5049476;28;19913;-54
2022/12/06 08:33:31;;;;;;;;;;;;;;;4.88;76.30;101296.72;5043509;28;20530;-51
2022/12/06 08:35:56;;;;;;;;;;;;;;;4.90;76.20;101290.59;5044024;28;19967;-53
2022/12/06 08:38:22;;;;;;;;;;;;;;;4.85;76.24;101286.34;5041978;28;19925;-52
2022/12/06 08:40:47;;;;;;;;;;;;;;;4.77;76.18;101290.03;5046330;28;20310;-52
2022/12/06 08:43:12;;;;;;;;;;;;;;;4.68;76.22;101288.50;5049748;28;20007;-53
2022/12/06 08:45:37;;;;;;;;;;;;;;;4.74;76.52;101290.97;5049492;28;19947;-52
2022/12/06 08:48:03;;;;;;;;;;;;;;;4.75;76.46;101284.00;5048338;28;19924;-52
2022/12/06 08:50:28;;;;;;;;;;;;;;;4.74;76.26;101285.78;5051339;28;19959;-52
2022/12/06 08:52:53;;;;;;;;;;;;;;;4.76;76.19;101291.81;5053606;28;19920;-54
2022/12/06 08:55:19;;;;;;;;;;;;;;;4.71;75.59;101286.69;5052980;28;19948;-52
2022/12/06 08:57:44;;;;;;;;;;;;;;;4.59;75.94;101292.19;5052799;28;19929;-53
2022/12/06 09:00:10;;;;;;;;;;;;;;;4.58;76.29;101287.88;5054447;28;19917;-52
2022/12/06 09:02:39;;;;;;;;;;;;;;;4.60;76.13;101280.03;5051639;28;19913;-51
2022/12/06 09:05:04;;;;;;;;;;;;;;;4.65;76.01;101279.03;5042521;28;20307;-52
2022/12/06 09:07:29;;;;;;;;;;;;;;;4.63;75.90;101285.16;5047742;28;19921;-51
2022/12/06 09:09:55;;;;;;;;;;;;;;;4.40;76.16;101292.63;5046492;28;20026;-52
2022/12/06 09:12:20;;;;;;;;;;;;;;;4.34;76.85;101294.50;5046683;28;19964;-52
2022/12/06 09:14:46;;;;;;;;;;;;;;;4.37;76.41;101284.03;5052373;28;19948;-52
2022/12/06 09:17:11;;;;;;;;;;;;;;;4.43;76.72;101284.75;5054614;28;19978;-52
2022/12/06 09:19:36;;;;;;;;;;;;;;;4.46;76.90;101278.63;5049545;28;19928;-54
2022/12/06 09:22:02;;;;;;;;;;;;;;;4.52;76.27;101281.06;5050577;28;19916;-52
2022/12/06 09:24:27;;;;;;;;;;;;;;;4.57;75.93;101281.81;5046954;28;20319;-53
2022/12/06 09:26:52;;;;;;;;;;;;;;;4.60;75.80;101277.44;5051960;28;19917;-51
2022/12/06 09:29:18;;;;;;;;;;;;;;;4.62;75.54;101283.44;5052663;28;20339;-52
2022/12/06 09:31:43;;;;;;;;;;;;;;;4.65;75.62;101272.94;5054087;28;19962;-53
2022/12/06 09:34:09;;;;;;;;;;;;;;;4.66;76.05;101279.88;5050532;28;20013;-51
2022/12/06 09:36:40;;;;;;;;;;;;;;;4.69;75.84;101285.84;5051409;28;19921;-52
2022/12/06 09:39:09;;;;;;;;;;;;;;;4.64;75.47;101276.44;5051379;28;19932;-52
2022/12/06 09:41:53;;;;;;;;;;;;;;;4.71;75.61;101275.41;5051390;28;19913;-55
2022/12/06 09:44:22;;;;;;;;;;;;;;;4.66;75.89;101270.31;5052380;28;19917;-52
2022/12/06 09:46:47;;;;;;;;;;;;;;;4.73;75.55;101266.66;5050902;28;19919;-52
2022/12/06 09:49:18;;;;;;;;;;;;;;;4.74;75.08;101262.31;5052318;28;20007;-52
2022/12/06 09:52:04;;;;;;;;;;;;;;;4.76;75.31;101265.72;5044771;28;19973;-51
2022/12/06 09:54:46;;;;;;;;;;;;;;;4.67;75.48;101252.91;5050980;28;20555;-52
2022/12/06 09:57:17;;;;;;;;;;;;;;;4.45;75.41;101253.44;5051476;28;19912;-53
2022/12/06 09:59:42;;;;;;;;;;;;;;;4.56;75.89;101251.44;5051589;28;20268;-52
2022/12/06 10:02:19;;;;;;;;;;;;;;;4.60;75.42;101243.53;5050318;28;19931;-54
2022/12/06 10:05:11;;;;;;;;;;;;;;;4.63;75.15;101243.44;5047418;28;19925;-52
2022/12/06 10:07:37;;;;;;;;;;;;;;;4.39;75.31;101240.56;5050164;28;19928;-52
2022/12/06 10:10:05;;;;;;;;;;;;;;;4.46;75.45;101247.34;5051556;28;19921;-52
2022/12/06 10:12:50;;;;;;;;;;;;;;;4.61;74.87;101245.25;5051174;28;19912;-55
2022/12/06 10:15:25;;;;;;;;;;;;;;;4.73;74.94;101237.97;5043166;28;19913;-52
2022/12/06 10:18:08;;;;;;;;;;;;;;;4.80;74.95;101230.84;5049092;28;20376;-52
2022/12/06 10:20:33;;;;;;;;;;;;;;;4.83;74.80;101236.00;5042556;28;20402;-52
2022/12/06 10:23:18;;;;;;;;;;;;;;;4.81;74.68;101237.78;5043704;28;19921;-52
2022/12/06 10:26:02;;;;;;;;;;;;;;;4.85;74.30;101230.72;5050715;28;20348;-51
2022/12/06 10:28:41;;;;;;;;;;;;;;;4.68;74.62;101231.16;5050858;28;19920;-52
2022/12/06 10:31:25;;;;;;;;;;;;;;;4.51;75.43;101236.81;5040060;28;20047;-52
2022/12/06 10:33:54;;;;;;;;;;;;;;;4.64;75.27;101225.19;5049525;28;20371;-51
2022/12/06 10:36:41;;;;;;;;;;;;;;;4.62;75.64;101233.91;5049870;28;19962;-53
2022/12/06 10:39:21;;;;;;;;;;;;;;;4.61;75.10;101213.97;5049742;28;19924;-52
2022/12/06 10:42:00;;;;;;;;;;;;;;;4.78;74.76;101217.00;5045381;28;19924;-52
2022/12/06 10:44:36;;;;;;;;;;;;;;;4.85;74.46;101222.91;5052199;28;19916;-52
2022/12/06 10:47:12;;;;;;;;;;;;;;;4.86;74.08;101217.66;5047570;28;20407;-52
2022/12/06 10:49:38;;;;;;;;;;;;;;;4.85;73.99;101218.56;5039146;28;20376;-52
2022/12/06 10:52:22;;;;;;;;;;;;;;;4.80;74.06;101222.19;5051874;28;20000;-52
2022/12/06 10:54:53;;;;;;;;;;;;;;;4.74;74.03;101212.78;5051953;28;20456;-52
2022/12/06 10:57:27;;;;;;;;;;;;;;;4.77;74.41;101209.22;5046617;28;22181;-52
2022/12/06 11:00:11;;;;;;;;;;;;;;;4.80;74.64;101215.19;5048117;28;19917;-52
2022/12/06 11:02:43;;;;;;;;;;;;;;;4.88;74.92;101207.16;5049776;28;19924;-52
2022/12/06 11:05:23;;;;;;;;;;;;;;;4.96;74.85;101204.38;5051300;28;19943;-53
2022/12/06 11:07:51;;;;;;;;;;;;;;;4.94;73.85;101204.41;5051010;28;19917;-52
2022/12/06 11:10:22;;;;;;;;;;;;;;;4.82;73.50;101202.97;5050063;28;20285;-53
2022/12/06 11:12:52;;;;;;;;;;;;;;;4.57;73.24;101198.41;5045814;28;20379;-52
2022/12/06 11:15:31;;;;;;;;;;;;;;;4.63;73.56;101191.31;5051898;28;19913;-54
2022/12/06 11:18:03;;;;;;;;;;;;;;;4.48;73.66;101189.97;5049907;28;19933;-54
2022/12/06 11:20:31;;;;;;;;;;;;;;;4.51;73.54;101187.28;5051980;28;19913;-55
2022/12/06 11:23:07;;;;;;;;;;;;;;;4.47;73.83;101190.84;5051401;28;19968;-52
2022/12/06 11:25:35;;;;;;;;;;;;;;;4.56;73.25;101186.28;5038319;28;19935;-52
2022/12/06 11:28:20;;;;;;;;;;;;;;;4.51;73.26;101182.91;5042540;28;20540;-52
2022/12/06 11:30:50;;;;;;;;;;;;;;;4.32;73.63;101192.06;5041583;28;19916;-52
2022/12/06 11:33:16;;;;;;;;;;;;;;;4.31;73.94;101183.41;5055055;28;19912;-52
2022/12/06 11:35:43;;;;;;;;;;;;;;;4.40;74.03;101180.56;5050368;28;20015;-52
2022/12/06 11:38:11;;;;;;;;;;;;;;;4.47;73.83;101178.66;5033639;28;19983;-52
2022/12/06 11:40:41;;;;;;;;;;;;;;;4.61;73.46;101185.31;5042262;28;19920;-52
2022/12/06 11:43:08;;;;;;;;;;;;;;;4.50;73.45;101180.38;5045298;28;19917;-51
2022/12/06 11:45:38;;;;;;;;;;;;;;;4.50;73.17;101185.56;5043060;28;19928;-52
2022/12/06 11:48:12;;;;;;;;;;;;;;;4.34;73.79;101178.13;5023650;28;19920;-53
2022/12/06 11:50:37;;;;;;;;;;;;;;;4.29;74.22;101171.34;5048266;28;20049;-52
2022/12/06 11:53:06;;;;;;;;;;;;;;;4.15;74.28;101169.91;5043997;28;20004;-52
2022/12/06 11:55:34;;;;;;;;;;;;;;;4.23;74.33;101170.56;5047118;28;19921;-52
2022/12/06 11:58:02;;;;;;;;;;;;;;;4.32;74.09;101160.81;5039729;28;20053;-52
2022/12/06 12:00:28;;;;;;;;;;;;;;;4.43;74.21;101169.25;5046719;28;19931;-53
2022/12/06 12:02:54;;;;;;;;;;;;;;;4.52;73.72;101161.19;5047781;28;19917;-52
2022/12/06 12:05:29;;;;;;;;;;;;;;;4.53;73.72;101159.44;5045831;28;19925;-54
2022/12/06 12:07:59;;;;;;;;;;;;;;;4.57;73.76;101161.91;5046720;28;19947;-52
2022/12/06 12:10:27;;;;;;;;;;;;;;;4.57;73.77;101156.72;5046291;28;20058;-53
2022/12/06 12:15:39;;;;;;;;;;;;;;;4.69;73.18;101150.28;5045273;28;19967;-52
2022/12/06 12:18:05;;;;;;;;;;;;;;;4.73;73.90;101153.69;5039607;28;20395;-52
2022/12/06 12:20:32;;;;;;;;;;;;;;;4.53;73.71;101154.22;5043861;28;20016;-53
2022/12/06 12:22:58;;;;;;;;;;;;;;;4.60;73.77;101149.72;5050181;28;19920;-51
2022/12/06 12:25:26;;;;;;;;;;;;;;;4.51;73.64;101145.59;5053601;28;19920;-52
2022/12/06 12:27:52;;;;;;;;;;;;;;;4.25;74.58;101155.78;5052291;28;19913;-52
2022/12/06 12:30:19;;;;;;;;;;;;;;;4.33;74.80;101149.50;5050822;28;19917;-52
2022/12/06 12:32:45;;;;;;;;;;;;;;;4.25;74.34;101155.78;5052203;28;19923;-51
2022/12/06 12:35:20;;;;;;;;;;;;;;;4.07;75.35;101151.00;5051684;28;19925;-52
2022/12/06 12:37:50;;;;;;;;;;;;;;;4.10;75.28;101145.72;5045288;28;19963;-52
2022/12/06 12:40:26;;;;;;;;;;;;;;;4.02;76.04;101152.84;5048498;28;19917;-52
2022/12/06 12:42:59;;;;;;;;;;;;;;;4.11;75.75;101143.06;5047467;28;19924;-51
2022/12/06 12:45:26;;;;;;;;;;;;;;;4.16;75.87;101137.75;5051067;28;19924;-51
2022/12/06 12:47:57;;;;;;;;;;;;;;;4.24;75.35;101147.97;5053347;28;19916;-52
2022/12/06 12:50:22;;;;;;;;;;;;;;;4.27;75.54;101140.97;5050822;28;19920;-52
2022/12/06 12:52:49;;;;;;;;;;;;;;;4.24;75.54;101135.81;5049060;28;19924;-53
2022/12/06 12:55:22;;;;;;;;;;;;;;;4.37;75.32;101148.53;5043051;28;19928;-52
2022/12/06 12:57:49;;;;;;;;;;;;;;;4.32;75.18;101134.75;5046628;28;20323;-53
2022/12/06 13:00:15;;;;;;;;;;;;;;;4.30;75.85;101136.56;5043381;28;19921;-51
2022/12/06 13:02:41;;;;;;;;;;;;;;;4.35;75.48;101135.56;5043419;28;19920;-52
2022/12/06 13:05:17;;;;;;;;;;;;;;;4.35;75.39;101130.34;5047773;28;19917;-51
2022/12/06 13:07:43;;;;;;;;;;;;;;;4.38;74.94;101130.28;5041761;28;19916;-53
2022/12/06 13:10:17;;;;;;;;;;;;;;;4.40;75.27;101127.63;5042206;28;19936;-55
2022/12/06 13:12:46;;;;;;;;;;;;;;;4.40;75.32;101127.63;5045020;28;20444;-54
2022/12/06 13:15:41;;;;;;;;;;;;;;;4.44;75.61;101129.25;5046189;28;20376;-53
2022/12/06 13:18:12;;;;;;;;;;;;;;;4.53;75.38;101133.38;5033346;28;19925;-53
2022/12/06 13:20:37;;;;;;;;;;;;;;;4.50;75.22;101136.91;5044132;28;19925;-52